Time;durP1;ratioP1;P1;durP2;ratioP2;P2;SDS_P1;SDS_P2;PMS_P1;PMS_P2;Temp;Humidity;BMP_temperature;BMP_pressure;BME280_temperature;BME280_humidity;BME280_pressure;Samples;Min_cycle;Max_cycle;Signal;HPM_P1;HPM_P2
2022/09/30 00:01:02;;;;;;;;;28.50;24.75;;;;;12.00;71.14;100272.47;5093091;27;45570;-53
2022/09/30 00:03:27;;;;;;;;;30.50;27.75;;;;;11.96;70.63;100263.78;5076539;27;46967;-58
2022/09/30 00:06:00;;;;;;;;;24.50;23.75;;;;;11.94;70.92;100273.69;5073708;27;45440;-56
2022/09/30 00:08:25;;;;;;;;;30.75;26.50;;;;;11.93;71.07;100271.13;5076534;27;45465;-57
2022/09/30 00:11:02;;;;;;;;;28.50;24.25;;;;;11.90;70.56;100268.69;5077598;27;45458;-61
2022/09/30 00:13:28;;;;;;;;;25.75;24.25;;;;;11.87;70.91;100267.09;5077612;27;47013;-57
2022/09/30 00:15:53;;;;;;;;;25.00;25.00;;;;;11.89;70.90;100274.97;5079929;27;45232;-61
2022/09/30 00:18:19;;;;;;;;;24.00;24.00;;;;;11.88;70.76;100278.59;5079051;27;45340;-58
2022/09/30 00:20:44;;;;;;;;;28.00;24.25;;;;;11.83;71.00;100265.56;5076509;27;45369;-61
2022/09/30 00:23:09;;;;;;;;;24.25;24.25;;;;;11.82;70.84;100261.19;5076361;27;46222;-56
2022/09/30 00:25:35;;;;;;;;;23.75;21.75;;;;;11.82;70.70;100272.69;5076445;27;45287;-57
2022/09/30 00:28:00;;;;;;;;;24.00;24.00;;;;;11.78;70.96;100268.50;5075275;27;45364;-54
2022/09/30 00:30:26;;;;;;;;;27.75;25.00;;;;;11.80;70.77;100277.28;5075928;27;45535;-55
2022/09/30 00:32:51;;;;;;;;;26.75;24.50;;;;;11.76;70.83;100269.56;5076085;27;45991;-57
2022/09/30 00:35:16;;;;;;;;;21.75;20.00;;;;;11.77;70.81;100276.59;5076572;28;45325;-57
2022/09/30 00:37:42;;;;;;;;;24.50;23.75;;;;;11.76;70.78;100272.25;5076128;27;45615;-57
2022/09/30 00:40:09;;;;;;;;;21.50;15.25;;;;;11.72;70.26;100271.59;5076394;28;45545;-53
2022/09/30 00:42:34;;;;;;;;;26.00;23.00;;;;;11.71;71.15;100266.34;5091589;27;46948;-56
2022/09/30 00:45:05;;;;;;;;;28.50;25.00;;;;;11.70;70.98;100270.81;5076017;27;45370;-58
2022/09/30 00:47:46;;;;;;;;;23.50;21.00;;;;;11.70;70.84;100268.16;5065785;27;45383;-57
2022/09/30 00:50:21;;;;;;;;;24.50;24.25;;;;;11.66;71.23;100273.78;5075968;27;45418;-57
2022/09/30 00:52:59;;;;;;;;;25.25;24.00;;;;;11.68;71.33;100272.72;5075952;28;46507;-57
2022/09/30 00:55:35;;;;;;;;;24.75;21.00;;;;;11.67;71.41;100276.34;5079279;27;45267;-59
2022/09/30 00:58:02;;;;;;;;;30.25;26.00;;;;;11.69;71.30;100273.59;5078973;27;45378;-57
2022/09/30 01:00:28;;;;;;;;;22.00;20.50;;;;;11.67;71.26;100271.03;5079995;27;45234;-58
2022/09/30 01:02:54;;;;;;;;;24.75;23.75;;;;;11.69;71.67;100278.91;5079462;28;46066;-57
2022/09/30 01:05:21;;;;;;;;;27.50;21.50;;;;;11.70;71.00;100283.28;5079502;27;45461;-58
2022/09/30 01:07:47;;;;;;;;;24.00;16.25;;;;;11.68;71.22;100283.38;5078808;27;45357;-58
2022/09/30 01:10:13;;;;;;;;;30.25;26.00;;;;;11.59;71.40;100273.34;5079677;27;45436;-60
2022/09/30 01:12:39;;;;;;;;;26.50;23.25;;;;;11.67;71.46;100295.00;5079013;28;45338;-59
2022/09/30 01:15:05;;;;;;;;;26.50;23.50;;;;;11.66;71.39;100290.63;5079211;27;45230;-59
2022/09/30 01:17:35;;;;;;;;;28.00;26.00;;;;;11.65;71.57;100288.06;5076577;27;45511;-59
2022/09/30 01:20:26;;;;;;;;;27.25;23.50;;;;;11.64;71.56;100287.22;5079582;27;45302;-55
2022/09/30 01:23:15;;;;;;;;;27.00;25.75;;;;;11.63;71.57;100290.84;5095732;27;45341;-54
2022/09/30 01:26:00;;;;;;;;;30.75;25.00;;;;;11.58;71.87;100281.41;5077420;27;46046;-55
2022/09/30 01:28:37;;;;;;;;;25.00;22.25;;;;;11.58;71.92;100278.75;5078360;27;45428;-57
2022/09/30 01:31:42;;;;;;;;;21.25;19.00;;;;;11.52;72.01;100280.03;5089316;27;45455;-60
2022/09/30 01:34:11;;;;;;;;;29.00;25.00;;;;;11.51;71.76;100276.50;5077351;28;47700;-58
2022/09/30 01:37:07;;;;;;;;;24.00;22.75;;;;;11.52;71.92;100282.69;5078917;28;45367;-59
2022/09/30 01:39:51;;;;;;;;;26.00;24.25;;;;;11.52;71.71;100282.69;5074259;28;45386;-60
2022/09/30 01:42:31;;;;;;;;;19.75;17.50;;;;;11.49;71.70;100278.41;5058800;28;45436;-59
2022/09/30 01:45:13;;;;;;;;;24.75;20.75;;;;;11.51;71.91;100280.97;5058732;28;46552;-60
2022/09/30 01:48:14;;;;;;;;;25.50;23.50;;;;;11.49;72.23;100280.22;5075667;27;45500;-58
2022/09/30 01:50:56;;;;;;;;;24.50;20.25;;;;;11.49;72.20;100296.19;5044902;27;46038;-53
2022/09/30 01:53:24;;;;;;;;;24.75;20.00;;;;;11.45;72.42;100287.53;5078994;27;45427;-56
2022/09/30 01:55:54;;;;;;;;;22.75;22.50;;;;;11.44;72.49;100290.31;5078695;28;45366;-57
2022/09/30 01:58:25;;;;;;;;;19.50;17.50;;;;;11.44;72.60;100298.28;5078050;27;45402;-52
2022/09/30 02:00:56;;;;;;;;;24.50;23.75;;;;;11.43;72.30;100293.91;5080095;28;45250;-56
2022/09/30 02:03:36;;;;;;;;;24.50;23.00;;;;;11.44;72.67;100291.16;5077742;27;45471;-54
2022/09/30 02:06:07;;;;;;;;;21.50;21.25;;;;;11.42;72.59;100292.22;5078017;27;46250;-54
2022/09/30 02:09:04;;;;;;;;;19.75;19.75;;;;;11.43;72.08;100284.13;5078809;27;45342;-53
2022/09/30 02:11:35;;;;;;;;;22.75;18.00;;;;;11.44;71.91;100279.66;5094450;27;45386;-55
2022/09/30 02:14:31;;;;;;;;;27.00;21.00;;;;;11.44;71.91;100283.16;5078745;27;45457;-52
2022/09/30 02:17:05;;;;;;;;;21.75;18.75;;;;;11.44;71.86;100284.97;5076226;27;45375;-55
2022/09/30 02:19:44;;;;;;;;;22.25;19.25;;;;;11.43;72.21;100285.94;5078165;28;45451;-57
2022/09/30 02:22:15;;;;;;;;;28.50;22.75;;;;;11.42;72.05;100281.56;5077599;27;45168;-60
2022/09/30 02:24:44;;;;;;;;;19.00;18.25;;;;;11.39;72.68;100279.94;5078154;27;45506;-52
2022/09/30 02:27:20;;;;;;;;;27.25;24.25;;;;;11.41;72.48;100282.50;5078109;27;45462;-57
2022/09/30 02:29:51;;;;;;;;;23.50;20.00;;;;;11.39;72.64;100279.94;5076897;27;45233;-59
2022/09/30 02:32:26;;;;;;;;;23.75;22.25;;;;;11.36;72.13;100279.31;5078285;28;45410;-52
2022/09/30 02:34:58;;;;;;;;;22.00;22.00;;;;;11.33;72.46;100266.16;5077053;27;45376;-54
2022/09/30 02:37:30;;;;;;;;;22.00;21.25;;;;;11.35;72.62;100269.63;5077286;27;45440;-55
2022/09/30 02:40:12;;;;;;;;;23.25;18.25;;;;;11.35;72.62;100286.44;5078164;27;45235;-54
2022/09/30 02:42:40;;;;;;;;;26.50;21.50;;;;;11.32;72.82;100281.28;5078218;27;45434;-56
2022/09/30 02:45:15;;;;;;;;;27.00;23.25;;;;;11.35;72.72;100274.94;5078111;27;45243;-59
2022/09/30 02:48:09;;;;;;;;;28.50;20.50;;;;;11.34;72.92;100284.72;5077532;27;46114;-59
2022/09/30 02:50:53;;;;;;;;;22.25;22.00;;;;;11.30;73.06;100295.66;5077598;27;45311;-59
2022/09/30 02:53:39;;;;;;;;;20.50;19.25;;;;;11.22;73.47;100294.34;5075726;27;45444;-56
2022/09/30 02:56:18;;;;;;;;;27.50;24.00;;;;;11.23;73.50;100292.53;5057565;28;45176;-57
2022/09/30 02:58:44;;;;;;;;;18.75;18.75;;;;;11.21;73.54;100294.44;5057517;28;45522;-59
2022/09/30 03:01:12;;;;;;;;;23.00;21.50;;;;;11.16;73.21;100292.06;5057267;28;45383;-56
2022/09/30 03:03:43;;;;;;;;;20.75;20.50;;;;;11.20;73.58;100304.25;5060109;28;45516;-57
2022/09/30 03:06:09;;;;;;;;;25.75;21.00;;;;;11.21;73.40;100299.78;5077785;27;45530;-58
2022/09/30 03:08:35;;;;;;;;;22.50;18.75;;;;;11.21;73.08;100299.78;5075357;27;45436;-53
2022/09/30 03:11:02;;;;;;;;;23.00;19.00;;;;;11.20;73.43;100312.22;5077298;27;45911;-54
2022/09/30 03:13:42;;;;;;;;;25.25;22.50;;;;;11.05;73.32;100299.88;5078002;28;45406;-55
2022/09/30 03:16:34;;;;;;;;;24.50;22.00;;;;;11.09;73.78;100312.03;5075929;27;45206;-53
2022/09/30 03:19:15;;;;;;;;;17.75;17.75;;;;;11.06;74.13;100320.19;5092947;27;47507;-56
2022/09/30 03:22:10;;;;;;;;;23.75;21.75;;;;;11.02;73.88;100331.13;5091481;27;45444;-56
2022/09/30 03:24:54;;;;;;;;;23.75;18.75;;;;;10.99;74.19;100332.19;5076008;27;45421;-55
2022/09/30 03:27:52;;;;;;;;;21.25;17.25;;;;;11.01;73.81;100334.75;5076765;27;46172;-53
2022/09/30 03:30:20;;;;;;;;;21.50;21.25;;;;;10.99;73.85;100337.50;5076998;27;45470;-56
2022/09/30 03:32:46;;;;;;;;;22.00;22.00;;;;;10.98;74.31;100340.28;5092762;27;45339;-61
2022/09/30 03:35:26;;;;;;;;;23.00;20.75;;;;;10.94;74.06;100350.25;5076870;27;45376;-59
2022/09/30 03:38:01;;;;;;;;;21.75;16.75;;;;;10.96;74.15;100355.47;5077531;27;45427;-59
2022/09/30 03:40:42;;;;;;;;;22.50;17.25;;;;;10.95;74.27;100362.59;5077444;28;46134;-59
2022/09/30 03:43:19;;;;;;;;;18.00;18.00;;;;;10.89;74.42;100358.50;5074024;27;45596;-57
2022/09/30 03:45:56;;;;;;;;;16.75;16.75;;;;;10.80;74.20;100371.50;5077419;27;45334;-57
2022/09/30 03:48:24;;;;;;;;;19.25;17.75;;;;;10.77;74.15;100385.00;5078165;27;45510;-53
2022/09/30 03:50:51;;;;;;;;;17.50;17.50;;;;;10.75;74.62;100393.06;5077404;27;45436;-54
2022/09/30 03:53:17;;;;;;;;;19.50;17.75;;;;;10.73;73.89;100394.09;5076933;27;45184;-57
2022/09/30 03:55:49;;;;;;;;;22.25;18.25;;;;;10.68;74.59;100404.16;5076969;27;45443;-58
2022/09/30 03:58:16;;;;;;;;;16.25;16.00;;;;;10.64;74.16;100396.34;5073307;27;45486;-56
2022/09/30 04:00:48;;;;;;;;;22.25;17.75;;;;;10.69;73.87;100405.88;5092485;27;46999;-56
2022/09/30 04:03:14;;;;;;;;;21.00;17.50;;;;;10.70;74.00;100405.78;5091646;27;45902;-57
2022/09/30 04:05:40;;;;;;;;;17.50;17.00;;;;;10.73;74.36;100413.59;5092423;27;45423;-60
2022/09/30 04:08:06;;;;;;;;;18.25;18.25;;;;;10.71;73.72;100411.97;5076547;27;44758;-56
2022/09/30 04:10:31;;;;;;;;;21.25;18.50;;;;;10.72;74.25;100421.66;5077003;27;46114;-58
2022/09/30 04:12:58;;;;;;;;;18.00;15.25;;;;;10.70;73.60;100423.56;5076741;27;45431;-59
2022/09/30 04:15:23;;;;;;;;;17.25;16.00;;;;;10.66;74.02;100425.50;5077050;27;45203;-55
2022/09/30 04:17:49;;;;;;;;;18.75;17.50;;;;;10.63;74.45;100439.00;5076217;27;45470;-58
2022/09/30 04:20:14;;;;;;;;;22.50;21.50;;;;;10.63;74.06;100446.97;5076167;27;46057;-60
2022/09/30 04:22:39;;;;;;;;;21.00;21.00;;;;;10.61;74.12;100446.22;5076391;27;45244;-55
2022/09/30 04:25:06;;;;;;;;;21.50;19.75;;;;;10.59;74.46;100450.78;5076278;27;45437;-62
2022/09/30 04:27:31;;;;;;;;;19.50;18.50;;;;;10.56;74.25;100456.28;5076580;27;45280;-53
2022/09/30 04:29:56;;;;;;;;;22.75;18.75;;;;;10.47;73.87;100443.50;5076024;27;45907;-57
2022/09/30 04:32:22;;;;;;;;;19.75;19.75;;;;;10.46;74.04;100453.28;5075991;27;45484;-51
2022/09/30 04:34:47;;;;;;;;;17.75;16.00;;;;;10.49;73.80;100460.22;5076438;27;45776;-54
2022/09/30 04:37:14;;;;;;;;;22.75;19.25;;;;;10.37;74.50;100439.66;5076166;27;45512;-58
2022/09/30 04:39:39;;;;;;;;;20.75;16.50;;;;;10.43;74.07;100456.13;5076201;27;45796;-55
2022/09/30 04:42:05;;;;;;;;;17.75;17.00;;;;;10.43;73.71;100458.78;5081169;27;45502;-52
2022/09/30 04:44:30;;;;;;;;;19.25;17.50;;;;;10.40;74.81;100458.94;5076943;27;45380;-58
2022/09/30 04:46:56;;;;;;;;;20.00;16.75;;;;;10.39;74.51;100459.03;5076372;27;45261;-53
2022/09/30 04:49:22;;;;;;;;;20.50;15.75;;;;;10.37;74.23;100464.44;5093790;27;45330;-58
2022/09/30 04:51:48;;;;;;;;;20.25;18.25;;;;;10.33;74.24;100460.25;5099858;27;45471;-56
2022/09/30 04:54:15;;;;;;;;;26.25;25.00;;;;;10.28;74.40;100460.50;5056443;28;45251;-52
2022/09/30 04:56:41;;;;;;;;;14.00;14.00;;;;;10.32;74.47;100472.69;5074512;27;45488;-59
2022/09/30 04:59:06;;;;;;;;;21.00;19.25;;;;;10.28;74.66;100456.97;5112518;27;46629;-66
2022/09/30 05:01:32;;;;;;;;;20.25;17.00;;;;;10.33;74.21;100466.44;5077254;27;45428;-55
2022/09/30 05:03:57;;;;;;;;;20.50;20.50;;;;;10.33;73.88;100470.88;5085450;27;45461;-54
2022/09/30 05:06:22;;;;;;;;;19.75;19.25;;;;;10.31;74.23;100467.47;5095838;27;45359;-57
2022/09/30 05:08:48;;;;;;;;;21.50;20.00;;;;;10.29;73.99;100464.91;5077202;27;46133;-54
2022/09/30 05:11:16;;;;;;;;;20.50;19.25;;;;;10.28;74.79;100476.44;5082020;27;47111;-60
2022/09/30 05:13:43;;;;;;;;;20.25;17.75;;;;;10.27;74.79;100476.53;5075535;27;45428;-59
2022/09/30 05:16:09;;;;;;;;;20.25;17.75;;;;;10.25;74.10;100481.94;5080709;27;45536;-60
2022/09/30 05:18:35;;;;;;;;;19.00;16.25;;;;;10.22;74.97;100478.59;5085905;27;45512;-58
2022/09/30 05:21:01;;;;;;;;;17.50;15.75;;;;;10.21;74.42;100482.19;5082565;27;45383;-58
2022/09/30 05:23:31;;;;;;;;;17.00;17.00;;;;;10.17;74.15;100481.50;5094295;27;45227;-65
2022/09/30 05:26:00;;;;;;;;;22.00;20.50;;;;;10.15;74.49;100485.16;5111640;27;45337;-63
2022/09/30 05:28:26;;;;;;;;;18.50;17.75;;;;;10.13;74.74;100487.06;5093135;27;47379;-59
2022/09/30 05:31:01;;;;;;;;;24.75;19.00;;;;;10.04;75.00;100473.34;5079465;27;45373;-59
2022/09/30 05:33:28;;;;;;;;;20.25;18.75;;;;;10.08;75.02;100484.66;5076305;27;45364;-61
2022/09/30 05:35:54;;;;;;;;;19.50;16.75;;;;;10.08;75.38;100487.31;5075888;27;45531;-61
2022/09/30 05:38:20;;;;;;;;;21.00;19.00;;;;;9.93;74.95;100462.47;5067588;27;45587;-63
2022/09/30 05:40:46;;;;;;;;;21.75;18.75;;;;;9.95;74.67;100473.00;5076776;27;45595;-57
2022/09/30 05:43:11;;;;;;;;;22.00;19.25;;;;;9.95;75.04;100479.16;5078754;27;45276;-53
2022/09/30 05:45:37;;;;;;;;;18.00;18.00;;;;;10.04;75.48;100501.72;5101239;27;45585;-61
2022/09/30 05:48:03;;;;;;;;;21.50;17.75;;;;;10.01;74.60;100496.56;5078248;27;47062;-49
2022/09/30 05:50:29;;;;;;;;;21.50;20.00;;;;;9.96;75.15;100499.47;5078918;27;45460;-57
2022/09/30 05:52:56;;;;;;;;;20.00;17.25;;;;;9.94;75.22;100498.72;5082279;27;45350;-59
2022/09/30 05:55:22;;;;;;;;;21.50;17.00;;;;;9.93;75.59;100496.13;5086821;27;45352;-59
2022/09/30 05:57:50;;;;;;;;;20.00;18.50;;;;;9.92;75.54;100494.44;5082528;27;46355;-59
2022/09/30 06:00:16;;;;;;;;;24.25;19.25;;;;;9.87;75.08;100502.63;5079222;28;45422;-60
2022/09/30 06:02:43;;;;;;;;;25.50;20.25;;;;;9.82;75.60;100490.56;5107461;27;45338;-58
2022/09/30 06:05:11;;;;;;;;;25.75;25.25;;;;;9.92;75.74;100516.53;5094576;27;45321;-59
2022/09/30 06:07:40;;;;;;;;;17.00;17.00;;;;;9.92;75.29;100511.22;5092693;27;46078;-60
2022/09/30 06:10:09;;;;;;;;;18.25;17.25;;;;;9.97;75.85;100510.97;5078115;27;45397;-61
2022/09/30 06:12:37;;;;;;;;;24.25;20.25;;;;;9.95;75.33;100521.69;5079744;28;44736;-58
2022/09/30 06:15:03;;;;;;;;;22.25;20.25;;;;;10.03;75.72;100524.78;5082800;27;45473;-60
2022/09/30 06:17:28;;;;;;;;;22.50;22.50;;;;;10.07;75.23;100524.59;5098894;27;45629;-60
2022/09/30 06:19:55;;;;;;;;;23.50;21.25;;;;;10.07;76.04;100535.22;5077666;27;45294;-63
2022/09/30 06:22:21;;;;;;;;;22.25;21.25;;;;;10.11;75.53;100528.81;5093422;27;45544;-57
2022/09/30 06:24:46;;;;;;;;;22.50;22.50;;;;;10.15;75.43;100554.25;5091882;27;45765;-61
2022/09/30 06:27:12;;;;;;;;;19.50;17.00;;;;;10.20;75.42;100547.75;5114418;27;45330;-56
2022/09/30 06:29:37;;;;;;;;;24.25;18.50;;;;;10.19;75.45;100547.84;5088937;27;45298;-58
2022/09/30 06:32:05;;;;;;;;;23.50;21.00;;;;;10.24;75.51;100556.44;5079124;27;45264;-56
2022/09/30 06:34:30;;;;;;;;;27.50;25.75;;;;;10.27;74.38;100567.75;5087305;27;45744;-59
2022/09/30 06:36:56;;;;;;;;;18.50;17.00;;;;;10.22;75.16;100539.72;5075324;27;46138;-61
2022/09/30 06:39:23;;;;;;;;;19.50;17.25;;;;;10.36;74.41;100555.78;5072863;27;45344;-60
2022/09/30 06:41:48;;;;;;;;;24.50;19.25;;;;;10.39;75.05;100557.41;5088329;27;45485;-61
2022/09/30 06:44:14;;;;;;;;;24.50;24.00;;;;;10.44;74.54;100558.00;5092555;27;45519;-60
2022/09/30 06:46:39;;;;;;;;;18.00;11.75;;;;;10.46;74.60;100564.97;5077938;27;45522;-59
2022/09/30 06:49:06;;;;;;;;;26.25;22.75;;;;;10.48;74.24;100570.19;5086047;27;45343;-59
2022/09/30 06:51:32;;;;;;;;;26.00;24.50;;;;;10.50;74.89;100571.81;5068949;27;45535;-62
2022/09/30 06:53:59;;;;;;;;;44.50;36.75;;;;;10.52;73.95;100567.25;5073597;27;45341;-61
2022/09/30 06:56:24;;;;;;;;;27.00;23.75;;;;;10.54;73.96;100564.50;5073488;27;46440;-57
2022/09/30 06:58:50;;;;;;;;;26.75;20.50;;;;;10.61;73.95;100565.88;5079196;27;45485;-58
2022/09/30 07:01:16;;;;;;;;;26.25;25.75;;;;;10.67;73.89;100567.34;5079133;27;45538;-57
2022/09/30 07:03:44;;;;;;;;;27.00;23.00;;;;;10.74;73.82;100576.69;5074433;27;45614;-61
2022/09/30 07:06:12;;;;;;;;;32.00;26.50;;;;;10.79;73.45;100575.47;5069745;27;46026;-57
2022/09/30 07:08:38;;;;;;;;;21.25;21.25;;;;;10.76;73.56;100561.50;5066447;27;45583;-59
2022/09/30 07:11:15;;;;;;;;;36.25;27.75;;;;;10.88;73.56;100574.09;5075438;27;46261;-60
2022/09/30 07:13:45;;;;;;;;;24.50;23.00;;;;;10.90;73.21;100559.75;5090827;27;45491;-59
2022/09/30 07:16:12;;;;;;;;;26.50;24.50;;;;;10.93;73.04;100550.72;5084282;27;45449;-64
2022/09/30 07:18:41;;;;;;;;;29.75;24.00;;;;;10.97;73.30;100556.75;5082386;27;45516;-61
2022/09/30 07:21:07;;;;;;;;;25.00;23.25;;;;;10.99;73.13;100563.69;5072577;27;45464;-58
2022/09/30 07:23:33;;;;;;;;;23.25;21.25;;;;;11.03;72.65;100557.25;5073511;28;45575;-58
2022/09/30 07:26:03;;;;;;;;;28.50;25.25;;;;;11.07;72.84;100558.78;5063134;27;45496;-57
2022/09/30 07:28:34;;;;;;;;;33.00;30.00;;;;;11.09;72.51;100567.53;5075606;27;45981;-64
2022/09/30 07:31:05;;;;;;;;;28.50;27.25;;;;;11.13;72.65;100566.41;5083798;27;45510;-56
2022/09/30 07:33:32;;;;;;;;;30.75;27.00;;;;;11.12;72.95;100562.03;5081164;27;45538;-54
2022/09/30 07:35:59;;;;;;;;;30.25;27.00;;;;;11.25;72.45;100571.97;5073102;27;47387;-58
2022/09/30 07:38:28;;;;;;;;;31.00;26.25;;;;;11.22;72.26;100563.22;5074334;27;45342;-60
2022/09/30 07:41:00;;;;;;;;;32.50;27.25;;;;;11.27;72.62;100559.41;5076149;27;45491;-62
2022/09/30 07:43:33;;;;;;;;;24.00;24.00;;;;;11.40;72.01;100573.69;5067377;27;45368;-61
2022/09/30 07:46:04;;;;;;;;;35.50;29.50;;;;;11.45;72.00;100584.94;5072254;28;46861;-60
2022/09/30 07:48:42;;;;;;;;;22.75;19.25;;;;;11.47;71.68;100583.06;5075258;27;45595;-57
2022/09/30 07:51:12;;;;;;;;;29.75;27.00;;;;;11.49;71.85;100573.16;5072503;27;45450;-59
2022/09/30 07:53:39;;;;;;;;;29.50;26.50;;;;;11.53;71.86;100577.34;5080347;27;45778;-59
2022/09/30 07:56:05;;;;;;;;;31.50;31.50;;;;;11.60;71.23;100581.38;5068737;27;46402;-59
2022/09/30 07:58:31;;;;;;;;;32.50;27.00;;;;;11.62;71.21;100583.94;5077254;27;45421;-56
2022/09/30 08:00:57;;;;;;;;;27.75;25.00;;;;;11.65;71.41;100587.25;5070300;27;45910;-62
2022/09/30 08:03:23;;;;;;;;;33.50;28.75;;;;;11.70;71.26;100578.97;5070864;27;45536;-61
2022/09/30 08:05:48;;;;;;;;;35.75;32.75;;;;;11.73;71.44;100571.69;5070383;27;46047;-61
2022/09/30 08:08:15;;;;;;;;;32.00;31.25;;;;;11.87;71.58;100583.34;5071939;28;45357;-61
2022/09/30 08:10:41;;;;;;;;;31.50;28.25;;;;;11.93;71.04;100582.94;5069720;27;45354;-54
2022/09/30 08:13:07;;;;;;;;;34.75;29.50;;;;;11.97;71.12;100581.78;5109738;27;45672;-60
2022/09/30 08:15:33;;;;;;;;;28.75;25.75;;;;;12.00;70.74;100573.63;5108093;27;48153;-58
2022/09/30 08:17:58;;;;;;;;;27.75;26.00;;;;;12.04;69.57;100580.47;5074361;28;45372;-58
2022/09/30 08:20:24;;;;;;;;;32.50;29.00;;;;;12.04;70.12;100577.81;5076370;27;45330;-59
2022/09/30 08:22:57;;;;;;;;;28.50;25.50;;;;;12.10;69.71;100574.75;5074552;27;45641;-58
2022/09/30 08:25:23;;;;;;;;;30.50;27.75;;;;;12.20;69.90;100589.22;5068952;27;45364;-59
2022/09/30 08:27:49;;;;;;;;;30.75;27.25;;;;;12.25;69.21;100588.94;5076009;27;45516;-55
2022/09/30 08:30:16;;;;;;;;;27.25;27.25;;;;;12.31;68.95;100584.06;5094429;27;45658;-57
2022/09/30 08:32:41;;;;;;;;;29.25;27.25;;;;;12.32;69.05;100577.78;5082381;27;45471;-58
2022/09/30 08:35:07;;;;;;;;;31.25;26.50;;;;;12.45;69.67;100583.19;5074162;27;45468;-60
2022/09/30 08:37:35;;;;;;;;;23.50;23.50;;;;;12.49;68.81;100578.50;5079176;27;47337;-57
2022/09/30 08:40:01;;;;;;;;;31.75;30.75;;;;;12.60;68.71;100578.69;5079155;27;45794;-60
2022/09/30 08:42:33;;;;;;;;;30.50;30.50;;;;;12.72;67.65;100591.22;5074879;27;45634;-58
2022/09/30 08:45:33;;;;;;;;;32.75;28.50;;;;;12.89;67.93;100593.66;5075402;27;46445;-59
2022/09/30 08:48:13;;;;;;;;;31.50;29.75;;;;;13.13;68.05;100582.31;5052644;27;45615;-60
2022/09/30 08:50:57;;;;;;;;;31.75;29.75;;;;;13.39;66.26;100592.13;5083466;27;45524;-63
2022/09/30 08:53:29;;;;;;;;;45.00;34.25;;;;;13.62;65.53;100584.34;5074262;27;45495;-61
2022/09/30 08:55:56;;;;;;;;;27.00;24.75;;;;;13.80;63.47;100575.94;5075289;27;45439;-61
2022/09/30 08:58:29;;;;;;;;;27.25;22.50;;;;;13.98;63.74;100579.13;5074442;27;45538;-59
2022/09/30 09:01:04;;;;;;;;;27.50;24.75;;;;;14.18;64.64;100586.59;5085198;27;45298;-61
2022/09/30 09:03:34;;;;;;;;;28.75;24.00;;;;;14.37;62.90;100579.94;5075464;27;45424;-59
2022/09/30 09:06:25;;;;;;;;;27.00;24.75;;;;;14.52;61.55;100572.66;5074853;28;45395;-57
2022/09/30 09:09:02;;;;;;;;;27.00;26.00;;;;;14.75;61.57;100580.72;5077571;27;45418;-61
2022/09/30 09:11:53;;;;;;;;;31.00;27.67;;;;;14.94;60.75;100573.97;5086546;27;46534;-60
2022/09/30 09:14:43;;;;;;;;;31.33;25.33;;;;;15.20;59.43;100583.59;5075552;28;45361;-59
2022/09/30 09:17:36;;;;;;;;;23.00;22.00;;;;;15.35;59.11;100581.56;5076101;27;46211;-58
2022/09/30 09:20:16;;;;;;;;;26.67;24.33;;;;;15.53;57.64;100587.38;5095855;27;45492;-58
2022/09/30 09:22:44;;;;;;;;;27.33;22.33;;;;;15.70;58.89;100595.00;5081967;27;45671;-59
2022/09/30 09:25:26;;;;;;;;;13.33;13.33;;;;;15.84;58.30;100586.72;5076214;27;45670;-59
2022/09/30 09:27:59;;;;;;;;;22.00;21.67;;;;;15.99;57.82;100589.19;5069986;28;46774;-62
2022/09/30 09:30:29;;;;;;;;;21.33;19.67;;;;;15.95;56.17;100577.00;5087461;27;45492;-62
2022/09/30 09:33:13;;;;;;;;;14.67;14.67;;;;;16.03;55.84;100593.34;5078424;27;45373;-57
2022/09/30 09:35:53;;;;;;;;;15.00;13.00;;;;;16.06;55.27;100601.16;5089804;27;45252;-60
2022/09/30 09:38:45;;;;;;;;;17.67;15.00;;;;;16.11;55.55;100604.31;5080893;27;45537;-61
2022/09/30 09:41:24;;;;;;;;;19.00;13.67;;;;;16.13;55.55;100597.00;5063728;27;45569;-62
2022/09/30 09:43:57;;;;;;;;;14.33;14.00;;;;;16.09;55.30;100591.03;5093255;27;45493;-57
2022/09/30 09:46:32;;;;;;;;;18.33;17.00;;;;;16.08;55.62;100610.78;5069730;27;46159;-59
2022/09/30 09:49:13;;;;;;;;;13.33;11.00;;;;;16.06;55.63;100612.75;5069446;27;45553;-61
2022/09/30 09:51:57;;;;;;;;;15.00;13.33;;;;;15.97;55.08;100602.72;5073465;27;45376;-63
2022/09/30 09:54:29;;;;;;;;;17.67;13.00;;;;;15.92;56.04;100603.09;5079468;27;45399;-65
2022/09/30 09:56:54;;;;;;;;;12.33;10.67;;;;;15.97;55.41;100608.09;5079183;27;45465;-63
2022/09/30 09:59:20;;;;;;;;;16.67;10.00;;;;;15.84;54.13;100580.53;5074498;27;45678;-65
2022/09/30 10:01:49;;;;;;;;;11.00;10.00;;;;;15.91;53.70;100587.13;5072353;27;45262;-64
2022/09/30 10:04:25;;;;;;;;;13.00;11.00;;;;;15.91;54.25;100603.22;5071969;27;45506;-60
2022/09/30 10:07:11;;;;;;;;;11.00;11.00;;;;;15.85;54.00;100599.16;5076887;27;45713;-63
2022/09/30 10:09:40;;;;;;;;;12.33;11.33;;;;;15.86;54.50;100606.25;5072114;27;45552;-61
2022/09/30 10:12:11;;;;;;;;;11.00;10.67;;;;;15.85;53.39;100603.69;5065308;27;45497;-67
2022/09/30 10:14:51;;;;;;;;;11.67;11.67;;;;;15.81;54.32;100603.06;5075469;27;45469;-60
2022/09/30 10:17:19;;;;;;;;;14.33;11.67;;;;;15.88;54.25;100606.13;5075262;27;45505;-61
2022/09/30 10:19:51;;;;;;;;;13.00;13.00;;;;;15.79;53.61;100583.56;5077471;27;46265;-60
2022/09/30 10:22:24;;;;;;;;;15.00;12.00;;;;;15.96;53.24;100584.06;5094273;27;45381;-62
2022/09/30 10:24:49;;;;;;;;;15.00;15.00;;;;;16.07;53.95;100600.19;5076479;27;46023;-62
2022/09/30 10:27:30;;;;;;;;;17.00;15.00;;;;;16.07;52.29;100592.97;5064552;27;45574;-60
2022/09/30 10:29:55;;;;;;;;;16.33;14.00;;;;;15.99;53.22;100562.38;5059149;27;45523;-61
2022/09/30 10:32:23;;;;;;;;;19.33;15.00;;;;;16.08;53.44;100565.19;5071529;27;45446;-62
2022/09/30 10:35:20;;;;;;;;;11.67;11.67;;;;;16.32;53.00;100591.03;5098497;27;45377;-62
2022/09/30 10:37:51;;;;;;;;;19.00;16.67;;;;;16.45;53.21;100592.63;5080690;27;45536;-67
2022/09/30 10:40:18;;;;;;;;;19.33;15.33;;;;;16.56;52.28;100589.06;5085573;27;46262;-65
2022/09/30 10:42:47;;;;;;;;;18.33;15.33;;;;;16.64;52.44;100583.91;5076071;27;45754;-65
2022/09/30 10:45:20;;;;;;;;;16.67;14.67;;;;;16.78;51.50;100588.19;5077598;27;45373;-64
2022/09/30 10:47:51;;;;;;;;;16.67;14.33;;;;;16.82;51.87;100586.97;5077142;27;45473;-61
2022/09/30 10:50:21;;;;;;;;;15.67;15.67;;;;;16.88;50.78;100591.81;5078361;27;45473;-66
2022/09/30 10:53:02;;;;;;;;;15.33;15.33;;;;;17.01;51.38;100589.84;5099708;27;45531;-62
2022/09/30 10:55:32;;;;;;;;;12.00;12.00;;;;;17.13;49.64;100576.34;5095539;27;45416;-63
2022/09/30 10:58:20;;;;;;;;;12.67;12.00;;;;;17.25;49.11;100578.88;5097442;27;45400;-64
2022/09/30 11:00:51;;;;;;;;;12.33;12.00;;;;;17.40;49.52;100580.25;5083293;27;45431;-63
2022/09/30 11:03:23;;;;;;;;;8.00;8.00;;;;;17.52;46.55;100580.22;5082680;27;45465;-60
2022/09/30 11:05:49;;;;;;;;;8.00;8.00;;;;;17.47;44.50;100572.53;5094678;27;45371;-65
2022/09/30 11:08:55;;;;;;;;;7.33;6.00;;;;;17.50;46.24;100576.81;5080655;27;45520;-64
2022/09/30 11:11:26;;;;;;;;;7.00;5.67;;;;;17.59;46.64;100579.56;5081010;27;47365;-62
2022/09/30 11:14:20;;;;;;;;;6.00;5.33;;;;;17.71;47.01;100588.47;5080320;27;45565;-60
2022/09/30 11:17:08;;;;;;;;;6.00;6.00;;;;;17.88;46.61;100573.53;5083293;27;45508;-63
2022/09/30 11:19:48;;;;;;;;;6.33;6.00;;;;;18.04;45.92;100584.66;5081111;27;45483;-63
2022/09/30 11:22:32;;;;;;;;;5.33;5.33;;;;;18.14;45.27;100582.88;5092090;27;45638;-60
2022/09/30 11:24:58;;;;;;;;;7.00;7.00;;;;;18.32;45.31;100584.94;5076897;28;45473;-66
2022/09/30 11:27:37;;;;;;;;;5.33;5.33;;;;;18.37;45.26;100582.69;5076568;27;45544;-65
2022/09/30 11:30:14;;;;;;;;;7.33;7.33;;;;;18.60;45.69;100575.22;5080740;27;45481;-64